Terminal Aerodrome Forecast
Issued by NWS

Home | Current Version | Previous Version | Text Only | Print | Product List | Glossary Off
Versions: 1 2 3 4 5 6 7 8 9 10 11 12 13 14 15 16 17

044
FTUS43 KBIS 210434 AAA
TAFDIK
TAF AMD
KDIK 210434Z 2105/2124 27030G40KT P6SM SCT120
     FM210700 25025G35KT P6SM FEW250 WS020/28050KT
     FM210800 29018G26KT P6SM BKN200 WS020/28040KT=

USA.gov is the U.S. government's official web portal to all federal, state and local government web resources and services.